createdAt,value
2023-11-11T00:00:21.605Z,17.40
2023-11-11T00:03:09.982Z,13.80
2023-11-11T00:05:38.139Z,13.80
2023-11-11T00:08:06.107Z,12.00
2023-11-11T00:10:34.924Z,13.00
2023-11-11T00:13:04.354Z,12.50
2023-11-11T00:15:34.964Z,17.90
2023-11-11T00:18:03.340Z,18.10
2023-11-11T00:20:31.530Z,23.90
2023-11-11T00:22:59.679Z,18.90
2023-11-11T00:25:27.686Z,20.80
2023-11-11T00:27:55.980Z,16.00
2023-11-11T00:30:24.100Z,15.40
2023-11-11T00:32:55.420Z,20.00
2023-11-11T00:35:23.528Z,22.80
2023-11-11T00:37:51.662Z,18.20
2023-11-11T00:40:19.648Z,17.30
2023-11-11T00:42:47.757Z,14.70
2023-11-11T00:45:16.015Z,16.40
2023-11-11T00:47:44.498Z,13.50
2023-11-11T00:50:12.634Z,13.70
2023-11-11T00:52:40.798Z,14.70
2023-11-11T00:55:09.182Z,15.30
2023-11-11T00:57:37.304Z,13.10
2023-11-11T01:00:06.617Z,13.80
2023-11-11T01:02:34.568Z,14.30
2023-11-11T01:05:02.493Z,15.30
2023-11-11T01:07:31.119Z,14.70
2023-11-11T01:10:00.010Z,14.60
2023-11-11T01:12:28.241Z,17.00
2023-11-11T01:14:56.494Z,15.80
2023-11-11T01:17:24.680Z,16.30
2023-11-11T01:19:52.718Z,14.60
2023-11-11T01:22:20.653Z,15.90
2023-11-11T01:24:49.021Z,15.50
2023-11-11T01:27:17.327Z,17.20
2023-11-11T01:29:45.267Z,18.10
2023-11-11T01:32:13.272Z,17.10
2023-11-11T01:34:41.404Z,17.50
2023-11-11T01:37:09.894Z,16.40
2023-11-11T01:39:38.142Z,14.40
2023-11-11T01:42:06.736Z,15.00
2023-11-11T01:44:34.746Z,16.90
2023-11-11T01:47:07.502Z,16.20
2023-11-11T01:49:36.097Z,18.90
2023-11-11T01:52:06.582Z,17.60
2023-11-11T01:54:36.181Z,18.00
2023-11-11T01:57:06.175Z,19.20
2023-11-11T01:59:36.807Z,17.40
2023-11-11T02:02:05.531Z,19.90
2023-11-11T02:04:34.948Z,19.60
2023-11-11T02:07:03.162Z,26.10
2023-11-11T02:09:31.256Z,38.10
2023-11-11T02:11:59.424Z,42.10
2023-11-11T02:14:27.693Z,34.00
2023-11-11T02:16:56.280Z,33.20
2023-11-11T02:19:24.346Z,36.70
2023-11-11T02:21:52.432Z,27.10
2023-11-11T02:24:22.530Z,26.20
2023-11-11T02:26:51.183Z,23.30
2023-11-11T02:29:19.140Z,16.70
2023-11-11T02:31:47.048Z,15.70
2023-11-11T02:34:15.289Z,17.10
2023-11-11T02:36:53.909Z,15.00
2023-11-11T02:39:28.912Z,18.40
2023-11-11T02:41:56.984Z,17.80
2023-11-11T02:44:26.241Z,16.50
2023-11-11T02:46:54.249Z,17.20
2023-11-11T02:49:22.855Z,17.50
2023-11-11T02:51:50.820Z,17.30
2023-11-11T02:54:18.991Z,15.70
2023-11-11T02:56:47.163Z,16.30
2023-11-11T02:59:15.235Z,16.20
2023-11-11T03:01:43.446Z,15.10
2023-11-11T03:04:13.499Z,23.10
2023-11-11T03:06:45.036Z,17.80
2023-11-11T03:09:13.369Z,21.50
2023-11-11T03:11:41.267Z,16.10
2023-11-11T03:14:09.493Z,14.00
2023-11-11T03:16:38.949Z,15.20
2023-11-11T03:19:08.076Z,19.50
2023-11-11T03:21:36.453Z,16.50
2023-11-11T03:24:06.026Z,13.70
2023-11-11T03:26:34.673Z,16.30
2023-11-11T03:29:03.054Z,15.20
2023-11-11T03:31:31.214Z,14.60
2023-11-11T03:33:59.694Z,17.50
2023-11-11T03:36:28.375Z,14.60
2023-11-11T03:38:56.415Z,15.70
2023-11-11T03:41:24.627Z,14.50
2023-11-11T03:43:53.010Z,13.60
2023-11-11T03:46:21.267Z,15.20
2023-11-11T03:48:49.343Z,14.50
2023-11-11T03:51:17.614Z,12.90
2023-11-11T03:53:45.583Z,15.20
2023-11-11T03:56:13.976Z,14.60
2023-11-11T03:58:42.275Z,13.80
2023-11-11T04:01:10.734Z,15.30
2023-11-11T04:03:40.995Z,15.10
2023-11-11T04:06:10.963Z,17.00
2023-11-11T04:08:41.008Z,15.40
2023-11-11T04:11:10.153Z,18.90
2023-11-11T04:13:42.102Z,14.10
2023-11-11T04:16:15.022Z,15.70
2023-11-11T04:18:43.340Z,14.30
2023-11-11T04:21:13.175Z,13.40
2023-11-11T04:23:44.252Z,15.60
2023-11-11T04:26:12.191Z,15.00
2023-11-11T04:28:44.246Z,15.50
2023-11-11T04:31:13.608Z,14.50
2023-11-11T04:33:41.554Z,12.90
2023-11-11T04:36:09.583Z,14.50
2023-11-11T04:38:38.686Z,14.50
2023-11-11T04:41:06.939Z,15.30
2023-11-11T04:43:36.172Z,15.60
2023-11-11T04:46:04.495Z,17.20
2023-11-11T04:48:32.687Z,15.70
2023-11-11T04:51:01.207Z,14.70
2023-11-11T04:53:29.472Z,13.40
2023-11-11T04:55:57.626Z,16.00
2023-11-11T04:58:25.935Z,17.30
2023-11-11T05:00:54.117Z,13.50
2023-11-11T05:03:22.348Z,13.10
2023-11-11T05:05:50.539Z,16.50
2023-11-11T05:08:18.787Z,14.90
2023-11-11T05:10:47.153Z,14.10
2023-11-11T05:13:16.014Z,14.10
2023-11-11T05:15:47.038Z,12.40
2023-11-11T05:18:15.466Z,13.60
2023-11-11T05:20:43.512Z,13.20
2023-11-11T05:23:11.895Z,13.50
2023-11-11T05:25:40.196Z,11.70
2023-11-11T05:28:08.811Z,12.60
2023-11-11T05:30:37.142Z,12.00
2023-11-11T05:33:06.682Z,16.40
2023-11-11T05:35:35.003Z,15.40
2023-11-11T05:38:03.038Z,14.60
2023-11-11T05:40:31.432Z,15.50
2023-11-11T05:43:01.642Z,16.00
2023-11-11T05:45:30.095Z,15.50
2023-11-11T05:47:58.254Z,14.00
2023-11-11T05:50:26.371Z,15.10
2023-11-11T05:52:54.509Z,16.00
2023-11-11T05:55:22.496Z,16.80
2023-11-11T05:57:50.675Z,15.70
2023-11-11T06:00:19.420Z,15.40
2023-11-11T06:02:47.696Z,16.00
2023-11-11T06:05:15.968Z,14.60
2023-11-11T06:07:43.973Z,16.00
2023-11-11T06:10:12.768Z,15.60
2023-11-11T06:12:41.082Z,18.70
2023-11-11T06:15:09.584Z,15.20
2023-11-11T06:17:37.942Z,16.20
2023-11-11T06:20:09.344Z,15.60
2023-11-11T06:22:37.555Z,19.70
2023-11-11T06:25:07.055Z,19.20
2023-11-11T06:27:35.885Z,22.00
2023-11-11T06:30:09.716Z,18.50
2023-11-11T06:32:38.050Z,18.20
2023-11-11T06:35:09.735Z,17.50
2023-11-11T06:37:37.988Z,18.30
2023-11-11T06:40:08.446Z,16.60
2023-11-11T06:42:41.962Z,17.50
2023-11-11T06:45:16.341Z,17.90
2023-11-11T06:47:44.788Z,17.20
2023-11-11T06:50:13.186Z,19.30
2023-11-11T06:52:41.338Z,20.50
2023-11-11T06:55:10.938Z,20.10
2023-11-11T06:57:38.985Z,20.40
2023-11-11T07:00:11.704Z,17.80
2023-11-11T07:02:39.895Z,17.10
2023-11-11T07:05:11.429Z,18.30
2023-11-11T07:07:42.985Z,22.90
2023-11-11T07:10:13.318Z,23.70
2023-11-11T07:12:42.427Z,28.60
2023-11-11T07:15:11.707Z,23.90
2023-11-11T07:17:42.963Z,24.40
2023-11-11T07:20:18.342Z,20.10
2023-11-11T07:22:46.909Z,19.90
2023-11-11T07:25:16.253Z,18.40
2023-11-11T07:27:45.077Z,18.40
2023-11-11T07:30:14.075Z,20.40
2023-11-11T07:32:53.211Z,21.90
2023-11-11T07:35:27.744Z,22.70
2023-11-11T07:37:56.329Z,21.20
2023-11-11T07:40:26.939Z,22.00
2023-11-11T07:42:58.075Z,20.00
2023-11-11T07:45:27.895Z,31.60
2023-11-11T07:47:56.983Z,28.20
2023-11-11T07:50:26.453Z,24.00
2023-11-11T07:52:56.663Z,19.20
2023-11-11T07:55:25.022Z,18.90
2023-11-11T08:00:25.849Z,21.80
2023-11-11T08:02:54.121Z,23.60
2023-11-11T08:05:24.671Z,21.80
2023-11-11T08:07:53.409Z,24.60
2023-11-11T08:10:22.977Z,26.60
2023-11-11T08:12:52.998Z,23.20
2023-11-11T08:15:21.686Z,25.70
2023-11-11T08:17:50.510Z,22.90
2023-11-11T08:20:19.886Z,23.00
2023-11-11T08:22:49.701Z,28.00
2023-11-11T08:25:17.872Z,24.50
2023-11-11T08:27:46.470Z,26.80
2023-11-11T08:30:14.711Z,24.50
2023-11-11T08:32:43.584Z,23.10
2023-11-11T08:35:15.866Z,23.10
2023-11-11T08:37:44.790Z,22.80
2023-11-11T08:40:14.695Z,22.10
2023-11-11T08:42:42.962Z,23.00
2023-11-11T08:45:14.905Z,23.30
2023-11-11T08:47:43.166Z,21.60
2023-11-11T08:50:13.153Z,22.20
2023-11-11T08:52:44.122Z,19.70
2023-11-11T08:55:13.267Z,18.00
2023-11-11T08:57:41.512Z,19.50
2023-11-11T09:00:13.283Z,16.40
2023-11-11T09:02:41.492Z,16.70
2023-11-11T09:05:11.125Z,21.20
2023-11-11T09:07:39.252Z,24.90
2023-11-11T09:10:07.849Z,25.40
2023-11-11T09:12:38.042Z,26.70
2023-11-11T09:15:06.706Z,25.00
2023-11-11T09:17:34.880Z,22.60
2023-11-11T09:20:03.004Z,21.80
2023-11-11T09:22:30.978Z,17.40
2023-11-11T09:24:59.215Z,17.60
2023-11-11T09:27:27.573Z,20.70
2023-11-11T09:29:55.656Z,15.80
2023-11-11T09:32:23.826Z,19.60
2023-11-11T09:34:52.009Z,22.10
2023-11-11T09:37:20.185Z,20.50
2023-11-11T09:39:48.393Z,18.60
2023-11-11T09:42:16.676Z,18.60
2023-11-11T09:47:19.712Z,22.20
2023-11-11T09:49:48.024Z,22.00
2023-11-11T09:52:17.392Z,22.60
2023-11-11T09:54:47.582Z,16.40
2023-11-11T09:57:18.363Z,19.50
2023-11-11T09:59:47.986Z,19.20
2023-11-11T10:02:16.723Z,18.30
2023-11-11T10:04:44.894Z,20.70
2023-11-11T10:07:13.758Z,19.80
2023-11-11T10:09:42.956Z,18.50
2023-11-11T10:12:11.497Z,25.80
2023-11-11T10:14:42.719Z,19.50
2023-11-11T10:17:12.584Z,17.50
2023-11-11T10:19:54.601Z,22.60
2023-11-11T10:22:27.409Z,19.40
2023-11-11T10:24:57.836Z,23.50
2023-11-11T10:27:29.042Z,19.90
2023-11-11T10:29:58.005Z,24.20
2023-11-11T10:32:28.874Z,23.80
2023-11-11T10:34:58.369Z,22.10
2023-11-11T10:37:26.512Z,26.60
2023-11-11T10:39:54.568Z,20.60
2023-11-11T10:42:23.164Z,20.40
2023-11-11T10:44:51.956Z,19.60
2023-11-11T10:47:20.269Z,19.80
2023-11-11T10:49:48.965Z,20.50
2023-11-11T10:52:20.212Z,20.20
2023-11-11T10:54:52.443Z,20.70
2023-11-11T10:57:21.705Z,23.20
2023-11-11T10:59:49.962Z,23.10
2023-11-11T11:02:19.395Z,22.60
2023-11-11T11:04:54.927Z,21.40
2023-11-11T11:07:29.364Z,25.50
2023-11-11T11:10:04.641Z,23.10
2023-11-11T11:12:39.752Z,23.30
2023-11-11T11:15:14.447Z,25.60
2023-11-11T11:17:45.794Z,26.70
2023-11-11T11:20:19.274Z,23.60
2023-11-11T11:22:50.720Z,23.30
2023-11-11T11:25:40.250Z,22.60
2023-11-11T11:28:11.176Z,23.20
2023-11-11T11:30:59.707Z,21.60
2023-11-11T11:33:32.569Z,18.50
2023-11-11T11:36:05.680Z,24.90
2023-11-11T11:38:39.837Z,23.10
2023-11-11T11:41:20.663Z,23.50
2023-11-11T11:43:54.435Z,21.40
2023-11-11T11:46:23.108Z,24.20
2023-11-11T11:48:52.291Z,21.50
2023-11-11T11:51:21.349Z,26.90
2023-11-11T11:53:54.704Z,25.00
2023-11-11T11:56:31.222Z,24.80
2023-11-11T11:59:03.367Z,22.50
2023-11-11T12:01:35.630Z,20.00
2023-11-11T12:04:05.160Z,26.90
2023-11-11T12:06:40.017Z,23.30
2023-11-11T12:09:13.359Z,23.10
2023-11-11T12:11:41.456Z,25.20
2023-11-11T12:14:10.806Z,24.90
2023-11-11T12:16:44.360Z,23.10
2023-11-11T12:19:18.273Z,22.30
2023-11-11T12:21:48.829Z,24.70
2023-11-11T12:24:18.384Z,23.80
2023-11-11T12:26:50.060Z,25.00
2023-11-11T12:29:20.373Z,20.60
2023-11-11T12:31:49.659Z,25.60
2023-11-11T12:34:26.196Z,26.90
2023-11-11T12:36:55.247Z,25.50
2023-11-11T12:39:26.650Z,27.80
2023-11-11T12:41:58.271Z,27.70
2023-11-11T12:44:27.413Z,29.40
2023-11-11T12:47:00.075Z,32.90
2023-11-11T12:49:29.895Z,27.70
2023-11-11T12:52:00.813Z,27.20
2023-11-11T12:54:32.809Z,28.90
2023-11-11T12:57:01.771Z,28.20
2023-11-11T12:59:29.831Z,27.00
2023-11-11T13:02:02.322Z,25.40
2023-11-11T13:04:34.366Z,25.20
2023-11-11T13:07:02.846Z,25.50
2023-11-11T13:09:42.940Z,24.80
2023-11-11T13:12:12.055Z,28.60
2023-11-11T13:14:44.805Z,28.80
2023-11-11T13:17:13.643Z,24.80
2023-11-11T13:19:41.901Z,27.80
2023-11-11T13:22:10.808Z,30.80
2023-11-11T13:24:39.262Z,29.80
2023-11-11T13:27:08.835Z,27.80
2023-11-11T13:29:37.307Z,31.90
2023-11-11T13:32:05.999Z,31.10
2023-11-11T13:34:34.936Z,31.40
2023-11-11T13:37:12.868Z,27.80
2023-11-11T13:39:52.741Z,27.80
2023-11-11T13:42:22.728Z,24.10
2023-11-11T13:44:51.544Z,28.90
2023-11-11T13:47:21.610Z,31.50
2023-11-11T13:49:49.705Z,30.60
2023-11-11T13:52:17.745Z,32.20
2023-11-11T13:54:46.103Z,51.00
2023-11-11T13:57:16.750Z,31.50
2023-11-11T13:59:44.912Z,25.50
2023-11-11T14:02:13.761Z,29.20
2023-11-11T14:04:47.142Z,26.70
2023-11-11T14:07:15.315Z,29.40
2023-11-11T14:09:43.323Z,32.30
2023-11-11T14:12:13.608Z,31.80
2023-11-11T14:14:43.044Z,37.20
2023-11-11T14:17:23.734Z,32.00
2023-11-11T14:19:53.473Z,31.30
2023-11-11T14:22:23.603Z,30.70
2023-11-11T14:24:51.763Z,36.20
2023-11-11T14:27:19.852Z,35.50
2023-11-11T14:29:48.614Z,39.00
2023-11-11T14:32:20.522Z,38.70
2023-11-11T14:34:48.617Z,35.20
2023-11-11T14:37:16.662Z,31.30
2023-11-11T14:39:46.666Z,32.10
2023-11-11T14:42:15.754Z,34.60
2023-11-11T14:44:43.808Z,32.70
2023-11-11T14:47:12.133Z,35.50
2023-11-11T14:49:40.229Z,37.90
2023-11-11T14:52:10.908Z,40.20
2023-11-11T14:54:41.608Z,43.00
2023-11-11T14:57:13.607Z,36.70
2023-11-11T14:59:41.653Z,36.30
2023-11-11T15:02:09.922Z,40.90
2023-11-11T15:04:38.215Z,44.60
2023-11-11T15:07:06.750Z,47.80
2023-11-11T15:09:34.985Z,44.00
2023-11-11T15:12:02.973Z,40.70
2023-11-11T15:14:31.207Z,40.40
2023-11-11T15:17:01.366Z,38.70
2023-11-11T15:19:29.514Z,36.80
2023-11-11T15:21:57.975Z,35.80
2023-11-11T15:24:29.543Z,36.80
2023-11-11T15:26:57.461Z,37.60
2023-11-11T15:29:25.374Z,39.00
2023-11-11T15:31:53.372Z,39.90
2023-11-11T15:34:21.651Z,39.80
2023-11-11T15:36:50.201Z,40.20
2023-11-11T15:39:24.026Z,41.40
2023-11-11T15:44:20.494Z,39.90
2023-11-11T15:46:51.569Z,40.60
2023-11-11T15:49:21.445Z,41.50
2023-11-11T15:51:51.063Z,39.90
2023-11-11T15:54:19.191Z,39.20
2023-11-11T15:56:49.682Z,38.50
2023-11-11T15:59:19.090Z,41.30
2023-11-11T16:01:47.371Z,45.80
2023-11-11T16:04:16.647Z,47.60
2023-11-11T16:06:44.575Z,43.20
2023-11-11T16:09:18.014Z,41.70
2023-11-11T16:11:46.382Z,41.20
2023-11-11T16:14:14.597Z,38.60
2023-11-11T16:16:42.818Z,43.80
2023-11-11T16:19:11.144Z,44.10
2023-11-11T16:21:39.270Z,41.20
2023-11-11T16:24:20.496Z,44.50
2023-11-11T16:26:55.766Z,46.70
2023-11-11T16:29:23.963Z,46.10
2023-11-11T16:31:52.323Z,44.00
2023-11-11T16:34:22.346Z,37.70
2023-11-11T16:36:50.525Z,40.20
2023-11-11T16:39:20.433Z,40.60
2023-11-11T16:41:52.279Z,39.40
2023-11-11T16:44:22.028Z,36.90
2023-11-11T16:46:50.114Z,37.50
2023-11-11T16:49:18.232Z,37.10
2023-11-11T16:51:46.967Z,36.60
2023-11-11T16:54:15.155Z,34.10
2023-11-11T16:56:43.628Z,33.30
2023-11-11T16:59:13.162Z,35.20
2023-11-11T17:01:41.473Z,34.10
2023-11-11T17:04:10.520Z,43.80
2023-11-11T17:06:38.620Z,42.70
2023-11-11T17:09:12.265Z,46.70
2023-11-11T17:14:12.758Z,52.00
2023-11-11T17:16:42.268Z,52.60
2023-11-11T17:19:10.708Z,54.10
2023-11-11T17:21:38.801Z,70.80
2023-11-11T17:24:07.821Z,62.40
2023-11-11T17:26:38.361Z,48.60
2023-11-11T17:29:06.470Z,39.90
2023-11-11T17:31:35.044Z,35.30
2023-11-11T17:34:03.300Z,42.40
2023-11-11T17:36:32.717Z,37.60
2023-11-11T17:39:00.983Z,38.60
2023-11-11T17:41:29.083Z,40.10
2023-11-11T17:43:57.586Z,34.40
2023-11-11T17:46:25.630Z,35.80
2023-11-11T17:48:54.879Z,35.10
2023-11-11T17:51:23.548Z,31.50
2023-11-11T17:53:51.930Z,28.20
2023-11-11T17:56:24.030Z,28.20
2023-11-11T17:58:52.597Z,27.00
2023-11-11T18:01:21.058Z,29.20
2023-11-11T18:03:49.492Z,25.40
2023-11-11T18:06:17.751Z,22.40
2023-11-11T18:08:47.074Z,18.00
2023-11-11T18:11:15.582Z,22.00
2023-11-11T18:13:43.705Z,21.30
2023-11-11T18:16:18.758Z,21.20
2023-11-11T18:18:47.516Z,19.40
2023-11-11T18:21:16.926Z,18.60
2023-11-11T18:23:47.741Z,18.80
2023-11-11T18:26:17.395Z,19.20
2023-11-11T18:28:47.712Z,21.60
2023-11-11T18:31:18.503Z,16.90
2023-11-11T18:33:46.902Z,17.50
2023-11-11T18:36:14.934Z,19.70
2023-11-11T18:38:44.290Z,17.20
2023-11-11T18:41:12.821Z,17.60
2023-11-11T18:43:40.920Z,15.20
2023-11-11T18:46:15.556Z,14.20
2023-11-11T18:48:43.626Z,15.30
2023-11-11T18:51:11.758Z,19.20
2023-11-11T18:53:40.079Z,14.00
2023-11-11T18:56:08.409Z,10.60
2023-11-11T18:58:36.610Z,9.50
2023-11-11T19:01:05.950Z,9.20
2023-11-11T19:03:36.071Z,9.60
2023-11-11T19:06:05.404Z,11.30
2023-11-11T19:08:33.469Z,9.80
2023-11-11T19:11:01.770Z,10.30
2023-11-11T19:13:29.655Z,14.10
2023-11-11T19:15:58.424Z,19.30
2023-11-11T19:18:26.408Z,11.90
2023-11-11T19:20:54.400Z,15.10
2023-11-11T19:23:23.045Z,11.70
2023-11-11T19:25:51.522Z,18.30
2023-11-11T19:28:19.474Z,16.00
2023-11-11T19:30:47.622Z,17.20
2023-11-11T19:33:16.140Z,17.10
2023-11-11T19:35:44.283Z,14.70
2023-11-11T19:38:12.392Z,16.10
2023-11-11T19:40:41.402Z,14.20
2023-11-11T19:43:09.569Z,12.40
2023-11-11T19:45:38.894Z,13.10
2023-11-11T19:48:07.331Z,14.60
2023-11-11T19:50:35.317Z,8.30
2023-11-11T19:53:03.302Z,11.00
2023-11-11T19:55:31.267Z,9.30
2023-11-11T19:57:59.730Z,9.50
2023-11-11T20:00:28.099Z,9.80
2023-11-11T20:02:56.023Z,10.10
2023-11-11T20:05:25.932Z,7.80
2023-11-11T20:07:54.270Z,9.40
2023-11-11T20:10:22.348Z,7.50
2023-11-11T20:12:55.222Z,6.60
2023-11-11T20:15:23.516Z,6.80
2023-11-11T20:17:51.794Z,8.80
2023-11-11T20:20:19.853Z,7.80
2023-11-11T20:22:48.219Z,8.40
2023-11-11T20:25:24.562Z,10.70
2023-11-11T20:27:56.388Z,9.00
2023-11-11T20:30:26.697Z,8.60
2023-11-11T20:32:54.924Z,7.70
2023-11-11T20:35:23.039Z,7.50
2023-11-11T20:37:51.032Z,7.40
2023-11-11T20:40:19.580Z,7.70
2023-11-11T20:42:51.670Z,10.10
2023-11-11T20:45:19.630Z,20.60
2023-11-11T20:47:47.700Z,21.30
2023-11-11T20:50:16.484Z,14.90
2023-11-11T20:52:45.869Z,12.20
2023-11-11T20:55:15.345Z,11.50
2023-11-11T20:57:43.631Z,8.50
2023-11-11T21:00:13.455Z,10.60
2023-11-11T21:02:42.415Z,8.50
2023-11-11T21:05:19.124Z,14.00
2023-11-11T21:07:47.472Z,14.10
2023-11-11T21:10:17.910Z,9.30
2023-11-11T21:12:50.853Z,9.90
2023-11-11T21:15:22.419Z,9.80
2023-11-11T21:17:51.834Z,8.90
2023-11-11T21:20:19.813Z,9.20
2023-11-11T21:22:51.284Z,8.50
2023-11-11T21:25:21.796Z,8.90
2023-11-11T21:27:49.933Z,8.70
2023-11-11T21:30:18.482Z,9.00
2023-11-11T21:32:47.332Z,11.10
2023-11-11T21:35:15.412Z,10.80
2023-11-11T21:37:43.516Z,10.90
2023-11-11T21:40:12.127Z,10.30
2023-11-11T21:42:40.382Z,13.50
2023-11-11T21:45:08.638Z,12.10
2023-11-11T21:47:38.000Z,10.90
2023-11-11T21:50:06.908Z,11.20
2023-11-11T21:52:38.147Z,9.70
2023-11-11T21:55:07.150Z,10.00
2023-11-11T21:57:37.753Z,9.70
2023-11-11T22:00:11.081Z,9.20
2023-11-11T22:02:39.323Z,10.70
2023-11-11T22:05:08.159Z,8.20
2023-11-11T22:07:36.207Z,10.20
2023-11-11T22:10:06.699Z,8.30
2023-11-11T22:12:34.703Z,6.20
2023-11-11T22:15:03.610Z,6.90
2023-11-11T22:17:33.202Z,6.90
2023-11-11T22:20:01.914Z,6.30
2023-11-11T22:22:29.874Z,6.80
2023-11-11T22:24:57.806Z,5.90
2023-11-11T22:27:27.110Z,7.30
2023-11-11T22:29:55.320Z,6.70
2023-11-11T22:32:24.187Z,6.80
2023-11-11T22:34:52.056Z,6.90
2023-11-11T22:37:20.823Z,8.20
2023-11-11T22:39:49.232Z,6.90
2023-11-11T22:42:17.122Z,4.80
2023-11-11T22:44:45.064Z,4.40
2023-11-11T22:47:13.369Z,3.20
2023-11-11T22:49:41.792Z,3.40
2023-11-11T22:52:09.916Z,2.20
2023-11-11T22:54:37.849Z,3.80
2023-11-11T22:57:05.938Z,1.70
2023-11-11T22:59:34.022Z,2.80
2023-11-11T23:02:02.020Z,3.60
2023-11-11T23:04:30.106Z,2.40
2023-11-11T23:06:58.037Z,2.00
2023-11-11T23:09:26.016Z,1.80
2023-11-11T23:11:55.045Z,2.30
2023-11-11T23:14:23.043Z,1.10
2023-11-11T23:16:51.359Z,1.60
2023-11-11T23:19:19.473Z,3.80
2023-11-11T23:21:47.734Z,1.10
2023-11-11T23:24:15.860Z,1.30
2023-11-11T23:26:44.279Z,1.30
2023-11-11T23:29:13.081Z,2.70
2023-11-11T23:31:43.312Z,0.80
2023-11-11T23:34:12.457Z,1.00
2023-11-11T23:36:40.564Z,1.00
2023-11-11T23:39:09.289Z,2.00
2023-11-11T23:41:37.485Z,1.00
2023-11-11T23:44:10.103Z,0.70
2023-11-11T23:46:43.963Z,0.80
2023-11-11T23:49:12.561Z,0.90
2023-11-11T23:51:40.533Z,1.00
2023-11-11T23:54:08.978Z,0.90
2023-11-11T23:56:36.991Z,1.20
2023-11-11T23:59:05.430Z,1.30
